Terminal Aerodrome Forecast
Issued by NWS

Home | Current Version | Previous Version | Text Only | Print | Product List | Glossary On
Versions: 1 2 3 4 5 6 7 8 9 10 11 12 13 14 15 16 17
000
FTUS43 KJKL 021121
TAFSME
TAF
KSME 021121Z 0212/0312 20005KT P6SM BKN014
     FM021400 21004KT P6SM BKN025
     FM021600 23005KT 4SM SHRA BR VCTS OVC040CB
     FM030100 29004KT P6SM VCSH OVC025
     FM030600 VRB03KT P6SM OVC015=

USA.gov is the U.S. government's official web portal to all federal, state and local government web resources and services.